Time;durP1;ratioP1;P1;durP2;ratioP2;P2;SDS_P1;SDS_P2;PMS_P1;PMS_P2;Temp;Humidity;BMP_temperature;BMP_pressure;BME280_temperature;BME280_humidity;BME280_pressure;Samples;Min_cycle;Max_cycle;Signal;HPM_P1;HPM_P2
2023/11/29 00:00:38;;;;;;;57.80;25.60;;;;;;;-128.00;-1.00;-1.00;103056;1255;1004313;-79
2023/11/29 00:03:25;;;;;;;55.80;24.00;;;;;;;-128.00;-1.00;-1.00;103087;1258;1046689;-79
2023/11/29 00:05:52;;;;;;;56.80;22.90;;;;;;;-128.00;-1.00;-1.00;103098;1259;1004598;-79
2023/11/29 00:08:19;;;;;;;50.80;21.20;;;;;;;-128.00;-1.00;-1.00;103060;1254;1003887;-79
2023/11/29 00:10:46;;;;;;;51.80;24.70;;;;;;;-128.00;-1.00;-1.00;103099;1258;1004445;-79
2023/11/29 00:13:13;;;;;;;50.90;24.40;;;;;;;-128.00;-1.00;-1.00;103070;1255;1003718;-79
2023/11/29 00:15:39;;;;;;;49.90;22.80;;;;;;;-128.00;-1.00;-1.00;102969;1256;1004977;-79
2023/11/29 00:18:06;;;;;;;49.30;22.30;;;;;;;-128.00;-1.00;-1.00;103074;1258;1004881;-79
2023/11/29 00:20:32;;;;;;;44.20;21.10;;;;;;;-128.00;-1.00;-1.00;103112;1253;1003938;-79
2023/11/29 00:22:59;;;;;;;52.10;23.80;;;;;;;-128.00;-1.00;-1.00;103150;1254;1004104;-79
2023/11/29 00:25:26;;;;;;;66.30;27.60;;;;;;;-128.00;-1.00;-1.00;103008;1257;1003441;-79
2023/11/29 00:27:52;;;;;;;57.90;26.60;;;;;;;-128.00;-1.00;-1.00;103040;1257;1005121;-79
2023/11/29 00:30:19;;;;;;;54.80;27.60;;;;;;;-128.00;-1.00;-1.00;103102;1254;1004424;-79
2023/11/29 00:32:45;;;;;;;58.20;24.50;;;;;;;-128.00;-1.00;-1.00;103068;1254;1004454;-79
2023/11/29 00:35:12;;;;;;;62.70;25.80;;;;;;;-128.00;-1.00;-1.00;103119;1254;1004626;-79
2023/11/29 00:37:38;;;;;;;54.30;25.40;;;;;;;-128.00;-1.00;-1.00;103096;1254;1005483;-79
2023/11/29 00:40:06;;;;;;;45.20;21.00;;;;;;;-128.00;-1.00;-1.00;103027;1254;1004287;-79
2023/11/29 00:42:32;;;;;;;58.60;25.50;;;;;;;-128.00;-1.00;-1.00;103144;1254;1003845;-79
2023/11/29 00:44:59;;;;;;;54.10;23.60;;;;;;;-128.00;-1.00;-1.00;103116;1254;1003795;-79
2023/11/29 00:47:25;;;;;;;52.40;24.30;;;;;;;-128.00;-1.00;-1.00;103273;1254;1004644;-79
2023/11/29 00:49:52;;;;;;;52.40;25.30;;;;;;;-128.00;-1.00;-1.00;103173;1253;1005071;-80
2023/11/29 00:52:19;;;;;;;53.80;23.10;;;;;;;-128.00;-1.00;-1.00;103153;1255;1003932;-79
2023/11/29 00:54:45;;;;;;;58.40;25.50;;;;;;;-128.00;-1.00;-1.00;103159;1256;1005119;-81
2023/11/29 00:57:12;;;;;;;51.60;21.90;;;;;;;-128.00;-1.00;-1.00;103109;1253;1004444;-80
2023/11/29 00:59:38;;;;;;;49.70;23.60;;;;;;;-128.00;-1.00;-1.00;103035;1257;1004034;-79
2023/11/29 01:02:05;;;;;;;50.70;21.90;;;;;;;-128.00;-1.00;-1.00;103109;1254;1004789;-79
2023/11/29 01:04:32;;;;;;;45.80;21.50;;;;;;;-128.00;-1.00;-1.00;103046;1254;1004469;-79
2023/11/29 01:06:58;;;;;;;42.00;19.20;;;;;;;-128.00;-1.00;-1.00;103017;1254;1004670;-79
2023/11/29 01:09:25;;;;;;;40.20;17.80;;;;;;;-128.00;-1.00;-1.00;103083;1254;1004408;-79
2023/11/29 01:11:52;;;;;;;41.80;17.00;;;;;;;-128.00;-1.00;-1.00;103067;1254;1004702;-79
2023/11/29 01:14:19;;;;;;;41.20;18.70;;;;;;;-128.00;-1.00;-1.00;103069;1254;1004813;-79
2023/11/29 01:16:45;;;;;;;44.00;19.20;;;;;;;-128.00;-1.00;-1.00;103127;1253;1003648;-79
2023/11/29 01:19:12;;;;;;;40.10;19.10;;;;;;;-128.00;-1.00;-1.00;103077;1254;1004427;-79
2023/11/29 01:21:38;;;;;;;39.80;18.40;;;;;;;-128.00;-1.00;-1.00;102993;1254;1004595;-79
2023/11/29 01:24:05;;;;;;;35.60;15.90;;;;;;;-128.00;-1.00;-1.00;103122;1254;1004626;-79
2023/11/29 01:26:33;;;;;;;43.10;19.60;;;;;;;-128.00;-1.00;-1.00;103105;1254;1003937;-79
2023/11/29 01:28:59;;;;;;;46.00;23.00;;;;;;;-128.00;-1.00;-1.00;103151;1254;1003947;-79
2023/11/29 01:31:26;;;;;;;51.80;21.80;;;;;;;-128.00;-1.00;-1.00;103017;1254;1005340;-79
2023/11/29 01:33:53;;;;;;;57.20;29.50;;;;;;;-128.00;-1.00;-1.00;105241;1254;1004963;-79
2023/11/29 01:36:20;;;;;;;53.90;23.90;;;;;;;-128.00;-1.00;-1.00;105538;1252;1004861;-79
2023/11/29 01:38:46;;;;;;;59.50;26.70;;;;;;;-128.00;-1.00;-1.00;105663;1252;1004891;-80
2023/11/29 01:41:13;;;;;;;57.40;27.10;;;;;;;-128.00;-1.00;-1.00;105663;1253;1003176;-79
2023/11/29 01:43:40;;;;;;;55.20;24.80;;;;;;;-128.00;-1.00;-1.00;104807;1254;1004683;-79
2023/11/29 01:46:06;;;;;;;55.00;25.80;;;;;;;-128.00;-1.00;-1.00;103049;1254;1004903;-79
2023/11/29 01:48:33;;;;;;;56.40;22.20;;;;;;;-128.00;-1.00;-1.00;103082;1253;1005631;-79
2023/11/29 01:50:59;;;;;;;48.80;23.80;;;;;;;-128.00;-1.00;-1.00;102939;1253;1005120;-80
2023/11/29 01:53:29;;;;;;;53.40;23.90;;;;;;;-128.00;-1.00;-1.00;102987;1253;1004175;-79
2023/11/29 01:55:57;;;;;;;64.20;26.30;;;;;;;-128.00;-1.00;-1.00;103132;1254;1048599;-79
2023/11/29 01:58:25;;;;;;;52.80;24.00;;;;;;;-128.00;-1.00;-1.00;102920;1253;1004271;-80
2023/11/29 02:00:52;;;;;;;47.30;23.60;;;;;;;-128.00;-1.00;-1.00;102953;1254;1004547;-79
2023/11/29 02:03:19;;;;;;;56.30;25.20;;;;;;;-128.00;-1.00;-1.00;103090;1253;1004437;-79
2023/11/29 02:05:46;;;;;;;50.10;21.80;;;;;;;-128.00;-1.00;-1.00;103028;1254;1004204;-79
2023/11/29 02:08:13;;;;;;;47.30;22.40;;;;;;;-128.00;-1.00;-1.00;103047;1254;1004366;-79
2023/11/29 02:10:40;;;;;;;54.90;23.60;;;;;;;-128.00;-1.00;-1.00;105653;1253;1003307;-79
2023/11/29 02:13:06;;;;;;;52.30;23.10;;;;;;;-128.00;-1.00;-1.00;105295;1253;1004846;-79
2023/11/29 02:15:33;;;;;;;59.70;25.90;;;;;;;-128.00;-1.00;-1.00;105406;1254;1004598;-79
2023/11/29 02:18:00;;;;;;;53.90;25.60;;;;;;;-128.00;-1.00;-1.00;103316;1254;1004941;-79
2023/11/29 02:20:26;;;;;;;55.60;23.80;;;;;;;-128.00;-1.00;-1.00;103140;1253;1004263;-79
2023/11/29 02:23:03;;;;;;;48.60;21.60;;;;;;;-128.00;-1.00;-1.00;103165;1254;1004882;-79
2023/11/29 02:25:29;;;;;;;48.80;20.20;;;;;;;-128.00;-1.00;-1.00;103103;1254;1058890;-79
2023/11/29 02:27:59;;;;;;;51.70;20.90;;;;;;;-128.00;-1.00;-1.00;103127;1253;1004761;-79
2023/11/29 02:30:26;;;;;;;49.50;24.80;;;;;;;-128.00;-1.00;-1.00;103007;1254;1048279;-79
2023/11/29 02:32:53;;;;;;;43.70;19.80;;;;;;;-128.00;-1.00;-1.00;105625;1254;1004761;-79
2023/11/29 02:35:19;;;;;;;43.20;21.10;;;;;;;-128.00;-1.00;-1.00;105655;1252;1004113;-79
2023/11/29 02:37:46;;;;;;;42.70;17.90;;;;;;;-128.00;-1.00;-1.00;105674;1254;1004442;-79
2023/11/29 02:40:12;;;;;;;46.00;19.70;;;;;;;-128.00;-1.00;-1.00;105642;1253;1004873;-79
2023/11/29 02:42:39;;;;;;;43.60;18.00;;;;;;;-128.00;-1.00;-1.00;105660;1253;1004386;-79
2023/11/29 02:45:06;;;;;;;41.70;18.70;;;;;;;-128.00;-1.00;-1.00;105667;1252;1004871;-79
2023/11/29 02:47:33;;;;;;;43.70;16.80;;;;;;;-128.00;-1.00;-1.00;105662;1252;1005396;-79
2023/11/29 02:50:00;;;;;;;35.80;15.40;;;;;;;-128.00;-1.00;-1.00;105662;1253;1003403;-79
2023/11/29 02:52:26;;;;;;;33.40;15.90;;;;;;;-128.00;-1.00;-1.00;105658;1253;1003950;-79
2023/11/29 02:54:53;;;;;;;31.80;15.50;;;;;;;-128.00;-1.00;-1.00;105616;1254;1004949;-79
2023/11/29 02:57:20;;;;;;;37.50;14.90;;;;;;;-128.00;-1.00;-1.00;105596;1253;1004902;-79
2023/11/29 02:59:46;;;;;;;33.70;16.40;;;;;;;-128.00;-1.00;-1.00;105617;1253;1004077;-79
2023/11/29 03:02:14;;;;;;;33.60;15.60;;;;;;;-128.00;-1.00;-1.00;105573;1253;1004387;-79
2023/11/29 03:04:40;;;;;;;37.60;16.20;;;;;;;-128.00;-1.00;-1.00;105303;1260;1004177;-79
2023/11/29 03:07:07;;;;;;;37.00;17.40;;;;;;;-128.00;-1.00;-1.00;105589;1253;1004212;-79
2023/11/29 03:09:34;;;;;;;41.10;19.60;;;;;;;-128.00;-1.00;-1.00;105571;1253;1003567;-79
2023/11/29 03:12:00;;;;;;;43.10;18.30;;;;;;;-128.00;-1.00;-1.00;105557;1254;1004273;-79
2023/11/29 03:14:27;;;;;;;37.40;17.50;;;;;;;-128.00;-1.00;-1.00;105561;1254;1004966;-79
2023/11/29 03:16:54;;;;;;;41.30;19.70;;;;;;;-128.00;-1.00;-1.00;103502;1254;1004717;-79
2023/11/29 03:19:21;;;;;;;42.80;20.10;;;;;;;-128.00;-1.00;-1.00;103091;1253;1004350;-79
2023/11/29 03:21:47;;;;;;;39.10;19.00;;;;;;;-128.00;-1.00;-1.00;103010;1254;1004170;-79
2023/11/29 03:24:14;;;;;;;47.90;21.40;;;;;;;-128.00;-1.00;-1.00;103137;1253;1004328;-79
2023/11/29 03:26:42;;;;;;;46.70;23.60;;;;;;;-128.00;-1.00;-1.00;103133;1254;1004937;-79
2023/11/29 03:29:08;;;;;;;56.10;24.30;;;;;;;-128.00;-1.00;-1.00;103102;1254;1004927;-79
2023/11/29 03:31:35;;;;;;;54.00;24.50;;;;;;;-128.00;-1.00;-1.00;103160;1253;1004121;-79
2023/11/29 03:34:02;;;;;;;57.90;26.10;;;;;;;-128.00;-1.00;-1.00;103213;1253;1004954;-79
2023/11/29 03:36:28;;;;;;;54.40;28.40;;;;;;;-128.00;-1.00;-1.00;103118;1253;1005091;-79
2023/11/29 03:38:55;;;;;;;47.60;22.70;;;;;;;-128.00;-1.00;-1.00;103111;1256;1005131;-79
2023/11/29 03:41:21;;;;;;;45.30;20.70;;;;;;;-128.00;-1.00;-1.00;103165;1253;1005127;-79
2023/11/29 03:43:48;;;;;;;49.60;21.80;;;;;;;-128.00;-1.00;-1.00;103117;1254;1004981;-79
2023/11/29 03:46:15;;;;;;;51.70;22.90;;;;;;;-128.00;-1.00;-1.00;103163;1253;1004125;-79
2023/11/29 03:48:41;;;;;;;47.10;21.50;;;;;;;-128.00;-1.00;-1.00;103020;1253;1005472;-79
2023/11/29 03:51:08;;;;;;;47.90;21.90;;;;;;;-128.00;-1.00;-1.00;103110;1253;1005020;-79
2023/11/29 03:53:34;;;;;;;67.40;32.00;;;;;;;-128.00;-1.00;-1.00;103129;1254;1003941;-79
2023/11/29 03:56:01;;;;;;;63.80;30.60;;;;;;;-128.00;-1.00;-1.00;103107;1253;1004700;-79
2023/11/29 03:58:27;;;;;;;48.30;21.90;;;;;;;-128.00;-1.00;-1.00;104392;1253;1004765;-79
2023/11/29 04:00:54;;;;;;;48.40;21.30;;;;;;;-128.00;-1.00;-1.00;105593;1253;1004320;-79
2023/11/29 04:03:21;;;;;;;42.70;21.50;;;;;;;-128.00;-1.00;-1.00;105414;1253;1004021;-79
2023/11/29 04:05:47;;;;;;;47.20;23.40;;;;;;;-128.00;-1.00;-1.00;105561;1253;1004808;-79
2023/11/29 04:08:14;;;;;;;57.90;27.30;;;;;;;-128.00;-1.00;-1.00;105533;1253;1005502;-78
2023/11/29 04:10:40;;;;;;;63.10;30.50;;;;;;;-128.00;-1.00;-1.00;105590;1253;1004393;-78
2023/11/29 04:13:07;;;;;;;65.00;29.20;;;;;;;-128.00;-1.00;-1.00;103989;1254;1003323;-79
2023/11/29 04:15:33;;;;;;;81.20;33.90;;;;;;;-128.00;-1.00;-1.00;103064;1253;1004719;-79
2023/11/29 04:18:00;;;;;;;87.30;36.80;;;;;;;-128.00;-1.00;-1.00;103012;1253;1003877;-79
2023/11/29 04:20:27;;;;;;;72.80;33.50;;;;;;;-128.00;-1.00;-1.00;103057;1253;1004462;-78
2023/11/29 04:22:53;;;;;;;67.40;31.70;;;;;;;-128.00;-1.00;-1.00;103752;1253;1004188;-79
2023/11/29 04:25:20;;;;;;;63.40;27.90;;;;;;;-128.00;-1.00;-1.00;105582;1253;1004593;-79
2023/11/29 04:27:46;;;;;;;53.70;25.50;;;;;;;-128.00;-1.00;-1.00;105549;1253;1004289;-78
2023/11/29 04:30:13;;;;;;;56.90;27.30;;;;;;;-128.00;-1.00;-1.00;105541;1253;1004837;-79
2023/11/29 04:32:39;;;;;;;57.70;26.90;;;;;;;-128.00;-1.00;-1.00;105547;1253;1004295;-79
2023/11/29 04:35:07;;;;;;;68.60;28.70;;;;;;;-128.00;-1.00;-1.00;105580;1253;1005351;-79
2023/11/29 04:37:33;;;;;;;64.10;28.30;;;;;;;-128.00;-1.00;-1.00;105571;1253;1004317;-79
2023/11/29 04:40:01;;;;;;;72.10;30.20;;;;;;;-128.00;-1.00;-1.00;105554;1253;1004846;-78
2023/11/29 04:42:27;;;;;;;63.50;24.60;;;;;;;-128.00;-1.00;-1.00;105440;1253;1003948;-79
2023/11/29 04:44:54;;;;;;;62.10;27.30;;;;;;;-128.00;-1.00;-1.00;105551;1253;1004688;-79
2023/11/29 04:47:20;;;;;;;70.70;31.90;;;;;;;-128.00;-1.00;-1.00;105579;1253;1004100;-79
2023/11/29 04:49:47;;;;;;;41.70;19.50;;;;;;;-128.00;-1.00;-1.00;105566;1253;1005711;-79
2023/11/29 04:52:14;;;;;;;51.40;24.30;;;;;;;-128.00;-1.00;-1.00;105570;1253;1003658;-79
2023/11/29 04:54:40;;;;;;;50.80;22.00;;;;;;;-128.00;-1.00;-1.00;105402;1253;1003305;-78
2023/11/29 04:57:07;;;;;;;43.70;19.90;;;;;;;-128.00;-1.00;-1.00;105561;1253;1005026;-78
2023/11/29 04:59:37;;;;;;;45.80;19.80;;;;;;;-128.00;-1.00;-1.00;104687;1253;1004985;-79
2023/11/29 05:02:04;;;;;;;39.40;17.70;;;;;;;-128.00;-1.00;-1.00;103057;1253;1063640;-78
2023/11/29 05:04:31;;;;;;;34.30;15.80;;;;;;;-128.00;-1.00;-1.00;105565;1253;1004728;-78
2023/11/29 05:06:58;;;;;;;43.50;19.00;;;;;;;-128.00;-1.00;-1.00;105572;1253;1003472;-78
2023/11/29 05:09:24;;;;;;;38.00;16.40;;;;;;;-128.00;-1.00;-1.00;105549;1253;1003763;-79
2023/11/29 05:11:51;;;;;;;40.90;20.80;;;;;;;-128.00;-1.00;-1.00;105371;1253;1003741;-79
2023/11/29 05:14:18;;;;;;;45.30;23.30;;;;;;;-128.00;-1.00;-1.00;103074;1257;1004825;-79
2023/11/29 05:16:45;;;;;;;116.80;45.40;;;;;;;-128.00;-1.00;-1.00;102984;1253;1005143;-79
2023/11/29 05:19:11;;;;;;;102.80;46.30;;;;;;;-128.00;-1.00;-1.00;103058;1253;1004479;-79
2023/11/29 05:21:38;;;;;;;89.40;41.40;;;;;;;-128.00;-1.00;-1.00;103118;1253;1004560;-79
2023/11/29 05:24:05;;;;;;;71.70;35.30;;;;;;;-128.00;-1.00;-1.00;103174;1253;1005105;-80
2023/11/29 05:26:32;;;;;;;57.20;27.90;;;;;;;-128.00;-1.00;-1.00;105650;1252;1005346;-79
2023/11/29 05:29:00;;;;;;;63.80;28.30;;;;;;;-128.00;-1.00;-1.00;104212;1252;1003942;-78
2023/11/29 05:31:27;;;;;;;39.90;20.10;;;;;;;-128.00;-1.00;-1.00;103153;1253;1004549;-78
2023/11/29 05:33:53;;;;;;;72.10;31.40;;;;;;;-128.00;-1.00;-1.00;103078;1252;1005083;-78
2023/11/29 05:36:21;;;;;;;69.90;31.50;;;;;;;-128.00;-1.00;-1.00;103133;1253;1004221;-79
2023/11/29 05:38:48;;;;;;;67.90;28.20;;;;;;;-128.00;-1.00;-1.00;103228;1253;1004649;-78
2023/11/29 05:41:15;;;;;;;53.10;23.20;;;;;;;-128.00;-1.00;-1.00;103132;1253;1005410;-78
2023/11/29 05:43:42;;;;;;;49.20;22.70;;;;;;;-128.00;-1.00;-1.00;103090;1253;1004535;-79
2023/11/29 05:46:08;;;;;;;78.80;30.80;;;;;;;-128.00;-1.00;-1.00;103128;1253;1005336;-78
2023/11/29 05:48:35;;;;;;;229.00;76.10;;;;;;;-128.00;-1.00;-1.00;103180;1253;1004607;-78
2023/11/29 05:51:02;;;;;;;88.60;41.50;;;;;;;-128.00;-1.00;-1.00;103009;1253;1005479;-78
2023/11/29 05:53:28;;;;;;;102.90;40.60;;;;;;;-128.00;-1.00;-1.00;103188;1254;1005617;-78
2023/11/29 05:55:55;;;;;;;72.10;34.50;;;;;;;-128.00;-1.00;-1.00;103120;1253;1005053;-79
2023/11/29 05:58:22;;;;;;;48.90;21.70;;;;;;;-128.00;-1.00;-1.00;103015;1253;1005178;-78
2023/11/29 06:00:49;;;;;;;49.50;23.20;;;;;;;-128.00;-1.00;-1.00;103111;1253;1003799;-78
2023/11/29 06:03:16;;;;;;;55.30;21.40;;;;;;;-128.00;-1.00;-1.00;103358;1253;1005295;-78
2023/11/29 06:05:43;;;;;;;59.80;25.50;;;;;;;-128.00;-1.00;-1.00;103184;1253;1005148;-78
2023/11/29 06:08:09;;;;;;;51.50;22.40;;;;;;;-128.00;-1.00;-1.00;103080;1253;1004387;-78
2023/11/29 06:10:36;;;;;;;45.60;20.80;;;;;;;-128.00;-1.00;-1.00;103057;1253;1004064;-78
2023/11/29 06:13:03;;;;;;;43.20;18.90;;;;;;;-128.00;-1.00;-1.00;103090;1253;1005288;-79
2023/11/29 06:15:29;;;;;;;66.20;26.90;;;;;;;-128.00;-1.00;-1.00;103180;1253;1004845;-79
2023/11/29 06:17:56;;;;;;;52.80;24.10;;;;;;;-128.00;-1.00;-1.00;103608;1253;1004344;-79
2023/11/29 06:20:23;;;;;;;53.90;24.80;;;;;;;-128.00;-1.00;-1.00;105534;1253;1004483;-79
2023/11/29 06:22:50;;;;;;;51.40;23.10;;;;;;;-128.00;-1.00;-1.00;105553;1253;1003649;-79
2023/11/29 06:25:16;;;;;;;54.20;26.80;;;;;;;-128.00;-1.00;-1.00;105482;1253;1003932;-79
2023/11/29 06:27:45;;;;;;;51.30;23.50;;;;;;;-128.00;-1.00;-1.00;105477;1253;1003951;-78
2023/11/29 06:30:12;;;;;;;;;;;;;;;-128.00;-1.00;-1.00;105573;1253;1058837;-78
2023/11/29 06:32:41;;;;;;;52.10;22.50;;;;;;;-128.00;-1.00;-1.00;105429;1253;1004471;-79
2023/11/29 06:35:12;;;;;;;79.10;37.70;;;;;;;-128.00;-1.00;-1.00;105544;1253;1047314;-79
2023/11/29 06:37:38;;;;;;;129.40;59.00;;;;;;;-128.00;-1.00;-1.00;105544;1253;1045953;-78
2023/11/29 06:40:10;;;;;;;104.30;44.00;;;;;;;-128.00;-1.00;-1.00;105588;1253;1004893;-79
2023/11/29 06:42:38;;;;;;;104.10;44.30;;;;;;;-128.00;-1.00;-1.00;105558;1253;1058406;-79
2023/11/29 06:45:05;;;;;;;118.80;48.80;;;;;;;-128.00;-1.00;-1.00;105517;1253;1003278;-79
2023/11/29 06:47:32;;;;;;;87.80;33.50;;;;;;;-128.00;-1.00;-1.00;105547;1253;1004145;-79
2023/11/29 06:49:59;;;;;;;78.80;30.90;;;;;;;-128.00;-1.00;-1.00;105570;1253;1004202;-79
2023/11/29 06:52:26;;;;;;;111.30;47.60;;;;;;;-128.00;-1.00;-1.00;105408;1253;1003578;-78
2023/11/29 06:54:53;;;;;;;104.90;46.70;;;;;;;-128.00;-1.00;-1.00;105632;1253;1003995;-78
2023/11/29 06:57:19;;;;;;;135.20;56.10;;;;;;;-128.00;-1.00;-1.00;104125;1253;1003464;-78
2023/11/29 06:59:46;;;;;;;159.20;63.00;;;;;;;-128.00;-1.00;-1.00;103191;1253;1003885;-78
2023/11/29 07:02:13;;;;;;;112.40;47.70;;;;;;;-128.00;-1.00;-1.00;103216;1253;1004017;-79
2023/11/29 07:04:43;;;;;;;116.70;50.60;;;;;;;-128.00;-1.00;-1.00;103279;1254;1004901;-79
2023/11/29 07:07:10;;;;;;;133.90;55.20;;;;;;;-128.00;-1.00;-1.00;103336;1253;1059176;-79
2023/11/29 07:09:37;;;;;;;111.30;49.10;;;;;;;-128.00;-1.00;-1.00;103241;1254;1004670;-78
2023/11/29 07:12:08;;;;;;;131.60;59.50;;;;;;;-128.00;-1.00;-1.00;103248;1254;1005435;-78
2023/11/29 07:14:35;;;;;;;149.20;69.90;;;;;;;-128.00;-1.00;-1.00;103892;1253;1048024;-78
2023/11/29 07:17:01;;;;;;;172.30;66.90;;;;;;;-128.00;-1.00;-1.00;104063;1253;1004794;-78
2023/11/29 07:19:28;;;;;;;137.50;60.80;;;;;;;-128.00;-1.00;-1.00;104110;1253;1005241;-78
2023/11/29 07:21:55;;;;;;;124.30;55.00;;;;;;;-128.00;-1.00;-1.00;104248;1254;1004439;-78
2023/11/29 07:24:21;;;;;;;132.20;60.70;;;;;;;-128.00;-1.00;-1.00;104399;1253;1004143;-79
2023/11/29 07:26:48;;;;;;;139.30;68.50;;;;;;;-128.00;-1.00;-1.00;104196;1253;1004442;-79
2023/11/29 07:29:15;;;;;;;143.90;68.70;;;;;;;-128.00;-1.00;-1.00;103414;1254;1005491;-79
2023/11/29 07:31:45;;;;;;;132.60;62.50;;;;;;;-128.00;-1.00;-1.00;103332;1253;1004704;-79
2023/11/29 07:34:12;;;;;;;120.90;55.90;;;;;;;-128.00;-1.00;-1.00;103364;1254;1059097;-78
2023/11/29 07:36:42;;;;;;;107.10;43.30;;;;;;;-128.00;-1.00;-1.00;103990;1253;1004017;-79
2023/11/29 07:39:09;;;;;;;127.10;48.10;;;;;;;-128.00;-1.00;-1.00;103492;1253;1046308;-78
2023/11/29 07:41:36;;;;;;;121.40;51.20;;;;;;;-128.00;-1.00;-1.00;103314;1253;1004654;-79
2023/11/29 07:44:03;;;;;;;106.90;47.70;;;;;;;-128.00;-1.00;-1.00;103148;1253;1004770;-79
2023/11/29 07:46:30;;;;;;;118.10;44.10;;;;;;;-128.00;-1.00;-1.00;104670;1253;1005161;-79
2023/11/29 07:48:56;;;;;;;103.50;44.00;;;;;;;-128.00;-1.00;-1.00;105550;1253;1003836;-78
2023/11/29 07:51:24;;;;;;;258.50;115.00;;;;;;;-128.00;-1.00;-1.00;105601;1253;1003876;-79
2023/11/29 07:53:52;;;;;;;188.40;77.20;;;;;;;-128.00;-1.00;-1.00;105552;1253;1004337;-79
2023/11/29 07:56:19;;;;;;;414.20;160.60;;;;;;;-128.00;-1.00;-1.00;105611;1253;1004578;-78
2023/11/29 07:58:46;;;;;;;225.70;94.00;;;;;;;-128.00;-1.00;-1.00;105563;1253;1004328;-78
2023/11/29 08:01:13;;;;;;;212.70;88.60;;;;;;;-128.00;-1.00;-1.00;105591;1253;1004052;-78
2023/11/29 08:03:40;;;;;;;158.50;68.80;;;;;;;-128.00;-1.00;-1.00;105595;1253;1004989;-78
2023/11/29 08:06:07;;;;;;;151.10;60.90;;;;;;;-128.00;-1.00;-1.00;105597;1253;1004183;-79
2023/11/29 08:08:34;;;;;;;132.70;55.40;;;;;;;-128.00;-1.00;-1.00;105600;1253;1003388;-79
2023/11/29 08:11:01;;;;;;;157.10;74.00;;;;;;;-128.00;-1.00;-1.00;105512;1253;1005066;-79
2023/11/29 08:13:28;;;;;;;139.80;63.60;;;;;;;-128.00;-1.00;-1.00;105565;1253;1003330;-79
2023/11/29 08:15:58;;;;;;;121.80;56.70;;;;;;;-128.00;-1.00;-1.00;105540;1254;1004661;-79
2023/11/29 08:18:25;;;;;;;143.80;54.50;;;;;;;-128.00;-1.00;-1.00;105533;1253;1062286;-79
2023/11/29 08:20:51;;;;;;;139.30;58.90;;;;;;;-128.00;-1.00;-1.00;105564;1253;1004003;-79
2023/11/29 08:23:18;;;;;;;132.40;62.50;;;;;;;-128.00;-1.00;-1.00;105585;1253;1003841;-79
2023/11/29 08:25:45;;;;;;;131.80;61.10;;;;;;;-128.00;-1.00;-1.00;105561;1253;1003681;-79
2023/11/29 08:28:12;;;;;;;179.10;79.60;;;;;;;-128.00;-1.00;-1.00;105523;1254;1003978;-79
2023/11/29 08:30:38;;;;;;;232.60;104.50;;;;;;;-128.00;-1.00;-1.00;105601;1253;1003906;-79
2023/11/29 08:33:06;;;;;;;173.70;73.30;;;;;;;-128.00;-1.00;-1.00;105516;1253;1004345;-79
2023/11/29 08:35:32;;;;;;;317.20;133.30;;;;;;;-128.00;-1.00;-1.00;105509;1253;1005125;-79
2023/11/29 08:37:59;;;;;;;328.30;141.30;;;;;;;-128.00;-1.00;-1.00;105543;1253;1004414;-79
2023/11/29 08:40:26;;;;;;;275.70;117.30;;;;;;;-128.00;-1.00;-1.00;103399;1253;1003556;-79
2023/11/29 08:42:53;;;;;;;318.70;144.70;;;;;;;-128.00;-1.00;-1.00;103253;1254;1005062;-79
2023/11/29 08:45:19;;;;;;;199.20;94.20;;;;;;;-128.00;-1.00;-1.00;103347;1256;1004413;-79
2023/11/29 08:47:46;;;;;;;134.70;61.30;;;;;;;-128.00;-1.00;-1.00;103359;1254;1003876;-79
2023/11/29 08:50:12;;;;;;;145.00;71.20;;;;;;;-128.00;-1.00;-1.00;103217;1254;1005012;-79
2023/11/29 08:52:42;;;;;;;200.20;86.50;;;;;;;-128.00;-1.00;-1.00;103241;1256;1004089;-79
2023/11/29 08:55:09;;;;;;;174.50;76.00;;;;;;;-128.00;-1.00;-1.00;103484;1253;1063022;-79
2023/11/29 08:57:36;;;;;;;155.50;66.70;;;;;;;-128.00;-1.00;-1.00;103503;1254;1005106;-79
2023/11/29 09:00:04;;;;;;;166.20;74.20;;;;;;;-128.00;-1.00;-1.00;103423;1253;1006197;-79
2023/11/29 09:02:31;;;;;;;137.10;64.50;;;;;;;-128.00;-1.00;-1.00;103474;1254;1004945;-78
2023/11/29 09:04:58;;;;;;;107.10;53.50;;;;;;;-128.00;-1.00;-1.00;103395;1254;1004814;-79
2023/11/29 09:07:25;;;;;;;100.20;52.00;;;;;;;-128.00;-1.00;-1.00;103494;1254;1005716;-78
2023/11/29 09:09:55;;;;;;;94.00;44.40;;;;;;;-128.00;-1.00;-1.00;103415;1254;1004682;-79
2023/11/29 09:12:25;;;;;;;89.70;42.70;;;;;;;-128.00;-1.00;-1.00;103414;1254;1061736;-79
2023/11/29 09:14:55;;;;;;;96.10;40.80;;;;;;;-128.00;-1.00;-1.00;103429;1253;1046179;-79
2023/11/29 09:17:22;;;;;;;103.00;45.10;;;;;;;-128.00;-1.00;-1.00;103375;1254;1046989;-79
2023/11/29 09:19:55;;;;;;;90.90;46.30;;;;;;;-128.00;-1.00;-1.00;103344;1254;1004542;-79
2023/11/29 09:22:22;;;;;;;85.50;38.20;;;;;;;-128.00;-1.00;-1.00;103521;1253;1058451;-79
2023/11/29 09:24:50;;;;;;;87.90;43.40;;;;;;;-128.00;-1.00;-1.00;103560;1254;1004381;-79
2023/11/29 09:27:17;;;;;;;85.40;39.10;;;;;;;-128.00;-1.00;-1.00;103567;1253;1004326;-79
2023/11/29 09:29:44;;;;;;;65.20;24.30;;;;;;;-128.00;-1.00;-1.00;103596;1253;1004366;-79
2023/11/29 09:32:10;;;;;;;73.60;34.70;;;;;;;-128.00;-1.00;-1.00;103476;1253;1003785;-79
2023/11/29 09:34:37;;;;;;;60.30;30.40;;;;;;;-128.00;-1.00;-1.00;103604;1254;1005045;-79
2023/11/29 09:37:04;;;;;;;83.10;40.90;;;;;;;-128.00;-1.00;-1.00;103497;1254;1003812;-79
2023/11/29 09:39:31;;;;;;;61.30;31.10;;;;;;;-128.00;-1.00;-1.00;103556;1256;1004410;-79
2023/11/29 09:41:59;;;;;;;65.30;29.10;;;;;;;-128.00;-1.00;-1.00;103451;1253;1005471;-79
2023/11/29 09:44:25;;;;;;;61.60;30.20;;;;;;;-128.00;-1.00;-1.00;103381;1254;1004902;-79
2023/11/29 09:46:52;;;;;;;66.80;31.20;;;;;;;-128.00;-1.00;-1.00;103326;1254;1003998;-79
2023/11/29 09:49:19;;;;;;;58.70;28.80;;;;;;;-128.00;-1.00;-1.00;103487;1254;1004642;-78
2023/11/29 09:51:46;;;;;;;61.40;29.60;;;;;;;-128.00;-1.00;-1.00;103198;1254;1003973;-79
2023/11/29 09:54:13;;;;;;;52.10;26.70;;;;;;;-128.00;-1.00;-1.00;103529;1253;1004212;-79
2023/11/29 09:56:40;;;;;;;80.00;39.60;;;;;;;-128.00;-1.00;-1.00;103709;1254;1005147;-79
2023/11/29 09:59:08;;;;;;;95.30;43.00;;;;;;;-128.00;-1.00;-1.00;103696;1253;1004783;-79
2023/11/29 10:01:36;;;;;;;82.50;42.20;;;;;;;-128.00;-1.00;-1.00;103635;1254;1004674;-78
2023/11/29 10:04:05;;;;;;;70.30;31.30;;;;;;;-128.00;-1.00;-1.00;103801;1254;1004715;-79
2023/11/29 10:06:32;;;;;;;57.80;29.60;;;;;;;-128.00;-1.00;-1.00;103725;1253;1046807;-78
2023/11/29 10:09:00;;;;;;;76.80;30.70;;;;;;;-128.00;-1.00;-1.00;104798;1253;1004839;-80
2023/11/29 10:11:29;;;;;;;58.90;27.90;;;;;;;-128.00;-1.00;-1.00;105373;1253;1058971;-79
2023/11/29 10:13:57;;;;;;;95.80;46.00;;;;;;;-128.00;-1.00;-1.00;105448;1253;1060034;-79
2023/11/29 10:16:26;;;;;;;318.40;123.70;;;;;;;-128.00;-1.00;-1.00;105286;1254;1004856;-79
2023/11/29 10:18:53;;;;;;;118.10;53.10;;;;;;;-128.00;-1.00;-1.00;105360;1253;1047405;-79
2023/11/29 10:21:19;;;;;;;108.30;45.60;;;;;;;-128.00;-1.00;-1.00;105522;1254;1004927;-79
2023/11/29 10:23:47;;;;;;;145.80;66.20;;;;;;;-128.00;-1.00;-1.00;105507;1254;1003833;-79
2023/11/29 10:26:14;;;;;;;78.60;37.60;;;;;;;-128.00;-1.00;-1.00;105504;1253;1004266;-79
2023/11/29 10:28:41;;;;;;;81.70;34.70;;;;;;;-128.00;-1.00;-1.00;105513;1253;1003694;-79
2023/11/29 10:31:08;;;;;;;110.00;43.30;;;;;;;-128.00;-1.00;-1.00;105373;1252;1004363;-79
2023/11/29 10:33:34;;;;;;;106.20;43.20;;;;;;;-128.00;-1.00;-1.00;105415;1254;1004583;-79
2023/11/29 10:36:02;;;;;;;66.40;29.20;;;;;;;-128.00;-1.00;-1.00;105521;1253;1004189;-79
2023/11/29 10:38:29;;;;;;;49.80;22.70;;;;;;;-128.00;-1.00;-1.00;105469;1254;1003763;-79
2023/11/29 10:40:56;;;;;;;66.40;29.20;;;;;;;-128.00;-1.00;-1.00;105388;1254;1005879;-79
2023/11/29 10:43:27;;;;;;;71.50;29.20;;;;;;;-128.00;-1.00;-1.00;105431;1253;1004452;-79
2023/11/29 10:45:56;;;;;;;57.50;25.70;;;;;;;-128.00;-1.00;-1.00;105248;1254;1062174;-78
2023/11/29 10:48:25;;;;;;;51.10;24.70;;;;;;;-128.00;-1.00;-1.00;104965;1253;1058303;-78
2023/11/29 10:50:52;;;;;;;126.40;43.60;;;;;;;-128.00;-1.00;-1.00;103467;1254;1059499;-78
2023/11/29 10:53:19;;;;;;;64.10;28.80;;;;;;;-128.00;-1.00;-1.00;103686;1254;1004421;-78
2023/11/29 10:55:47;;;;;;;49.10;25.00;;;;;;;-128.00;-1.00;-1.00;103508;1254;1005545;-78
2023/11/29 10:58:18;;;;;;;51.40;24.80;;;;;;;-128.00;-1.00;-1.00;103561;1254;1004919;-78